Terminal Aerodrome Forecast
Issued by NWS

Home | Current Version | Previous Version | Graphics & Text | Print | Product List | Glossary On
Versions: 1 2 3 4 5 6 7 8 9 10 11 12 13 14 15 16 17 18 19 20 21 22 23 24 25 26 27 28 29 30 31 32 33 34
418
FTUS43 KGRB 191737
TAFATW
TAF
KATW 191737Z 1918/2018 05006KT P6SM SKC
     FM192300 15005KT P6SM BKN250
     FM200500 17005KT P6SM VCSH SCT050 BKN100 WS010/18030KT
      TEMPO 2008/2012 3SM -TSRA BKN025CB
     FM201200 28007KT 6SM -SHRA BKN030=

USA.gov is the U.S. government's official web portal to all federal, state and local government web resources and services.